createdAt,value
2023-03-16T00:01:44.153Z,101793.25
2023-03-16T00:04:10.661Z,101795.16
2023-03-16T00:06:37.033Z,101791.28
2023-03-16T00:09:04.021Z,101796.69
2023-03-16T00:11:30.647Z,101797.16
2023-03-16T00:13:58.592Z,101804.63
2023-03-16T00:16:25.184Z,101797.63
2023-03-16T00:18:51.756Z,101804.72
2023-03-16T00:21:18.166Z,101796.03
2023-03-16T00:23:44.609Z,101792.78
2023-03-16T00:26:13.015Z,101792.22
2023-03-16T00:28:39.461Z,101783.78
2023-03-16T00:31:11.864Z,101790.69
2023-03-16T00:33:39.309Z,101797.28
2023-03-16T00:36:08.224Z,101789.50
2023-03-16T00:38:36.488Z,101792.13
2023-03-16T00:41:04.069Z,101793.00
2023-03-16T00:43:31.624Z,101791.59
2023-03-16T00:46:06.600Z,101783.34
2023-03-16T00:48:34.671Z,101797.19
2023-03-16T00:51:06.454Z,101794.13
2023-03-16T00:53:34.099Z,101791.38
2023-03-16T00:56:04.229Z,101787.31
2023-03-16T00:58:35.728Z,101783.66
2023-03-16T01:01:07.148Z,101780.25
2023-03-16T01:03:33.846Z,101787.19
2023-03-16T01:06:06.086Z,101779.53
2023-03-16T01:08:33.107Z,101782.09
2023-03-16T01:11:05.294Z,101784.09
2023-03-16T01:13:32.470Z,101785.63
2023-03-16T01:15:59.824Z,101776.78
2023-03-16T01:18:27.521Z,101779.84
2023-03-16T01:20:53.978Z,101774.09
2023-03-16T01:23:20.954Z,101769.72
2023-03-16T01:25:53.027Z,101774.97
2023-03-16T01:28:20.957Z,101767.97
2023-03-16T01:30:47.528Z,101766.19
2023-03-16T01:33:13.900Z,101761.22
2023-03-16T01:35:40.406Z,101757.84
2023-03-16T01:38:06.829Z,101764.81
2023-03-16T01:40:33.272Z,101771.41
2023-03-16T01:43:04.463Z,101766.25
2023-03-16T01:45:57.293Z,101757.44
2023-03-16T01:48:25.012Z,101754.59
2023-03-16T01:50:54.883Z,101752.09
2023-03-16T01:53:22.952Z,101742.44
2023-03-16T01:55:49.945Z,101742.97
2023-03-16T01:58:16.433Z,101746.28
2023-03-16T02:00:45.554Z,101750.88
2023-03-16T02:03:15.308Z,101748.94
2023-03-16T02:05:46.057Z,101741.22
2023-03-16T02:08:13.058Z,101734.19
2023-03-16T02:10:40.229Z,101739.81
2023-03-16T02:13:06.772Z,101734.41
2023-03-16T02:15:35.916Z,101723.78
2023-03-16T02:18:02.617Z,101713.56
2023-03-16T02:20:42.975Z,101717.97
2023-03-16T02:23:18.388Z,101711.72
2023-03-16T02:25:56.772Z,101709.50
2023-03-16T02:28:45.020Z,101711.28
2023-03-16T02:31:12.308Z,101704.44
2023-03-16T02:33:39.227Z,101714.22
2023-03-16T02:36:05.802Z,101714.78
2023-03-16T02:38:32.202Z,101713.34
2023-03-16T02:41:01.715Z,101709.59
2023-03-16T02:43:33.255Z,101710.16
2023-03-16T02:46:00.514Z,101712.47
2023-03-16T02:48:33.483Z,101713.13
2023-03-16T02:50:59.895Z,101708.53
2023-03-16T02:53:26.274Z,101709.72
2023-03-16T02:55:52.674Z,101697.66
2023-03-16T02:58:19.331Z,101696.34
2023-03-16T03:00:45.861Z,101701.59
2023-03-16T03:03:12.411Z,101686.81
2023-03-16T03:05:38.890Z,101694.00
2023-03-16T03:08:05.791Z,101703.00
2023-03-16T03:10:32.578Z,101708.66
2023-03-16T03:12:59.223Z,101704.06
2023-03-16T03:15:25.622Z,101702.50
2023-03-16T03:17:52.024Z,101709.03
2023-03-16T03:20:19.740Z,101699.81
2023-03-16T03:22:48.051Z,101702.25
2023-03-16T03:25:16.787Z,101698.06
2023-03-16T03:27:43.858Z,101697.97
2023-03-16T03:30:12.848Z,101699.06
2023-03-16T03:32:40.272Z,101698.94
2023-03-16T03:35:07.170Z,101692.56
2023-03-16T03:37:33.543Z,101687.84
2023-03-16T03:40:00.137Z,101688.53
2023-03-16T03:42:26.693Z,101694.09
2023-03-16T03:44:53.078Z,101693.63
2023-03-16T03:47:19.735Z,101683.44
2023-03-16T03:49:46.154Z,101687.59
2023-03-16T03:52:12.616Z,101680.47
2023-03-16T03:54:38.991Z,101696.25
2023-03-16T03:57:05.581Z,101691.44
2023-03-16T03:59:32.164Z,101685.63
2023-03-16T04:01:58.587Z,101686.28
2023-03-16T04:04:25.036Z,101682.56
2023-03-16T04:06:51.515Z,101684.34
2023-03-16T04:09:17.957Z,101687.59
2023-03-16T04:11:44.378Z,101687.31
2023-03-16T04:14:10.750Z,101694.56
2023-03-16T04:16:37.192Z,101694.47
2023-03-16T04:19:04.319Z,101699.38
2023-03-16T04:21:31.154Z,101695.31
2023-03-16T04:23:57.543Z,101688.06
2023-03-16T04:26:25.618Z,101684.81
2023-03-16T04:28:53.013Z,101674.19
2023-03-16T04:31:19.478Z,101683.19
2023-03-16T04:33:45.940Z,101666.44
2023-03-16T04:36:12.442Z,101676.00
2023-03-16T04:38:38.895Z,101668.53
2023-03-16T04:41:06.101Z,101674.47
2023-03-16T04:43:35.996Z,101666.03
2023-03-16T04:46:03.750Z,101669.06
2023-03-16T04:48:32.095Z,101669.41
2023-03-16T04:50:59.243Z,101666.41
2023-03-16T04:53:25.636Z,101654.56
2023-03-16T04:55:52.005Z,101664.38
2023-03-16T04:58:18.397Z,101652.97
2023-03-16T05:00:45.469Z,101648.06
2023-03-16T05:03:11.858Z,101646.84
2023-03-16T05:05:39.212Z,101659.03
2023-03-16T05:08:06.784Z,101649.22
2023-03-16T05:10:34.218Z,101647.34
2023-03-16T05:13:00.847Z,101638.47
2023-03-16T05:15:27.675Z,101629.91
2023-03-16T05:17:57.299Z,101635.44
2023-03-16T05:20:24.236Z,101633.25
2023-03-16T05:22:50.977Z,101642.69
2023-03-16T05:25:18.352Z,101631.50
2023-03-16T05:27:50.511Z,101639.97
2023-03-16T05:30:17.821Z,101648.38
2023-03-16T05:32:44.824Z,101640.66
2023-03-16T05:35:15.059Z,101649.44
2023-03-16T05:37:42.482Z,101634.47
2023-03-16T05:40:22.893Z,101638.81
2023-03-16T05:42:54.190Z,101642.63
2023-03-16T05:45:21.077Z,101634.16
2023-03-16T05:47:47.520Z,101636.53
2023-03-16T05:50:16.791Z,101645.66
2023-03-16T05:52:47.238Z,101628.25
2023-03-16T05:55:15.427Z,101633.88
2023-03-16T05:57:42.361Z,101637.47
2023-03-16T06:00:16.918Z,101633.53
2023-03-16T06:02:44.160Z,101635.69
2023-03-16T06:05:11.245Z,101632.25
2023-03-16T06:07:37.818Z,101628.25
2023-03-16T06:10:05.791Z,101638.63
2023-03-16T06:12:32.468Z,101634.88
2023-03-16T06:14:59.103Z,101639.13
2023-03-16T06:17:25.639Z,101633.16
2023-03-16T06:19:52.060Z,101642.03
2023-03-16T06:22:18.649Z,101645.84
2023-03-16T06:24:45.047Z,101651.53
2023-03-16T06:27:11.827Z,101650.41
2023-03-16T06:29:38.357Z,101661.56
2023-03-16T06:32:05.102Z,101655.44
2023-03-16T06:34:31.526Z,101675.00
2023-03-16T06:36:57.990Z,101676.06
2023-03-16T06:39:24.696Z,101670.91
2023-03-16T06:41:51.183Z,101678.56
2023-03-16T06:44:17.566Z,101675.13
2023-03-16T06:46:44.074Z,101679.94
2023-03-16T06:49:11.016Z,101682.03
2023-03-16T06:51:37.455Z,101679.75
2023-03-16T06:54:04.006Z,101674.88
2023-03-16T06:56:34.210Z,101680.19
2023-03-16T06:59:01.602Z,101682.00
2023-03-16T07:01:28.043Z,101674.69
2023-03-16T07:03:54.732Z,101684.56
2023-03-16T07:06:21.174Z,101675.84
2023-03-16T07:08:47.573Z,101685.81
2023-03-16T07:11:14.872Z,101680.22
2023-03-16T07:13:41.729Z,101671.91
2023-03-16T07:16:08.255Z,101677.59
2023-03-16T07:18:34.664Z,101676.03
2023-03-16T07:21:01.065Z,101679.88
2023-03-16T07:23:27.538Z,101679.31
2023-03-16T07:25:53.901Z,101683.38
2023-03-16T07:28:20.607Z,101693.56
2023-03-16T07:31:02.456Z,101692.50
2023-03-16T07:33:29.749Z,101683.75
2023-03-16T07:35:56.191Z,101693.78
2023-03-16T07:38:22.656Z,101693.03
2023-03-16T07:40:49.623Z,101694.81
2023-03-16T07:43:16.074Z,101689.47
2023-03-16T07:45:42.503Z,101692.59
2023-03-16T07:48:08.911Z,101692.81
2023-03-16T07:50:35.285Z,101694.69
2023-03-16T07:53:01.671Z,101694.38
2023-03-16T07:55:28.036Z,101692.63
2023-03-16T07:57:54.507Z,101690.81
2023-03-16T08:00:23.869Z,101685.22
2023-03-16T08:02:51.752Z,101690.69
2023-03-16T08:05:18.204Z,101685.25
2023-03-16T08:07:44.663Z,101685.81
2023-03-16T08:10:11.581Z,101682.00
2023-03-16T08:12:38.076Z,101684.75
2023-03-16T08:15:05.875Z,101685.84
2023-03-16T08:17:32.378Z,101695.06
2023-03-16T08:19:58.773Z,101698.16
2023-03-16T08:22:25.595Z,101695.84
2023-03-16T08:24:52.676Z,101691.28
2023-03-16T08:27:20.429Z,101695.06
2023-03-16T08:29:46.900Z,101699.97
2023-03-16T08:32:13.428Z,101700.41
2023-03-16T08:34:40.001Z,101703.50
2023-03-16T08:37:06.846Z,101705.03
2023-03-16T08:39:33.606Z,101702.78
2023-03-16T08:42:00.138Z,101701.97
2023-03-16T08:44:27.349Z,101694.34
2023-03-16T08:46:53.874Z,101696.50
2023-03-16T08:49:20.980Z,101697.66
2023-03-16T08:51:47.448Z,101701.78
2023-03-16T08:54:13.831Z,101696.47
2023-03-16T08:56:40.222Z,101686.41
2023-03-16T08:59:07.818Z,101686.28
2023-03-16T09:01:35.447Z,101690.78
2023-03-16T09:04:03.210Z,101690.00
2023-03-16T09:06:30.546Z,101687.81
2023-03-16T09:08:57.271Z,101677.13
2023-03-16T09:11:25.997Z,101679.47
2023-03-16T09:13:53.159Z,101681.75
2023-03-16T09:16:21.035Z,101682.34
2023-03-16T09:18:47.913Z,101692.00
2023-03-16T09:21:14.430Z,101683.66
2023-03-16T09:23:44.220Z,101681.22
2023-03-16T09:26:12.512Z,101682.22
2023-03-16T09:28:41.959Z,101683.75
2023-03-16T09:31:09.642Z,101684.06
2023-03-16T09:33:36.161Z,101671.91
2023-03-16T09:36:03.524Z,101673.47
2023-03-16T09:38:30.483Z,101669.59
2023-03-16T09:41:05.007Z,101665.53
2023-03-16T09:43:45.782Z,101671.72
2023-03-16T09:46:21.753Z,101671.56
2023-03-16T09:48:48.349Z,101673.88
2023-03-16T09:51:38.807Z,101675.94
2023-03-16T09:54:15.277Z,101680.03
2023-03-16T09:56:43.231Z,101674.31
2023-03-16T09:59:12.064Z,101674.09
2023-03-16T10:02:17.370Z,101667.47
2023-03-16T10:04:52.256Z,101673.13
2023-03-16T10:07:30.709Z,101673.06
2023-03-16T10:10:00.370Z,101666.28
2023-03-16T10:12:32.554Z,101651.72
2023-03-16T10:15:06.255Z,101664.09
2023-03-16T10:17:39.417Z,101662.16
2023-03-16T10:20:11.178Z,101657.81
2023-03-16T10:22:40.927Z,101649.16
2023-03-16T10:25:24.040Z,101657.38
2023-03-16T10:27:51.292Z,101652.69
2023-03-16T10:30:25.732Z,101653.22
2023-03-16T10:32:58.971Z,101650.34
2023-03-16T10:35:41.937Z,101647.16
2023-03-16T10:38:46.624Z,101647.50
2023-03-16T10:41:39.160Z,101642.97
2023-03-16T10:44:15.130Z,101641.34
2023-03-16T10:46:48.663Z,101632.41
2023-03-16T10:49:25.517Z,101636.56
2023-03-16T10:51:53.468Z,101647.38
2023-03-16T10:54:37.642Z,101647.91
2023-03-16T10:57:34.699Z,101638.78
2023-03-16T11:00:13.851Z,101621.97
2023-03-16T11:02:40.759Z,101630.19
2023-03-16T11:05:19.309Z,101633.81
2023-03-16T11:07:58.725Z,101634.25
2023-03-16T11:10:28.274Z,101631.72
2023-03-16T11:12:57.576Z,101628.88
2023-03-16T11:15:26.644Z,101625.50
2023-03-16T11:17:56.201Z,101618.41
2023-03-16T11:20:26.431Z,101608.81
2023-03-16T11:22:52.793Z,101612.97
2023-03-16T11:25:28.654Z,101603.72
2023-03-16T11:28:12.993Z,101605.78
2023-03-16T11:30:59.170Z,101620.16
2023-03-16T11:33:27.254Z,101610.50
2023-03-16T11:36:03.904Z,101608.75
2023-03-16T11:38:46.158Z,101593.25
2023-03-16T11:41:23.741Z,101584.81
2023-03-16T11:43:53.539Z,101580.63
2023-03-16T11:46:49.180Z,101576.19
2023-03-16T11:49:42.808Z,101574.66
2023-03-16T11:52:42.067Z,101571.06
2023-03-16T11:55:37.046Z,101570.06
2023-03-16T11:58:11.140Z,101560.16
2023-03-16T12:00:45.523Z,101559.50
2023-03-16T12:03:31.045Z,101557.97
2023-03-16T12:06:16.923Z,101543.63
2023-03-16T12:09:19.869Z,101548.72
2023-03-16T12:11:56.394Z,101549.59
2023-03-16T12:14:44.486Z,101542.16
2023-03-16T12:17:20.749Z,101541.41
2023-03-16T12:20:01.928Z,101552.56
2023-03-16T12:22:38.777Z,101548.72
2023-03-16T12:25:15.182Z,101548.28
2023-03-16T12:27:43.111Z,101539.72
2023-03-16T12:30:28.671Z,101524.13
2023-03-16T12:33:28.227Z,101534.34
2023-03-16T12:36:03.984Z,101526.69
2023-03-16T12:38:45.853Z,101515.09
2023-03-16T12:41:36.776Z,101522.44
2023-03-16T12:44:19.514Z,101522.25
2023-03-16T12:47:20.056Z,101519.19
2023-03-16T12:49:46.830Z,101522.63
2023-03-16T12:52:14.580Z,101514.69
2023-03-16T12:54:52.477Z,101507.72
2023-03-16T12:57:19.894Z,101506.69
2023-03-16T12:59:47.983Z,101495.94
2023-03-16T13:02:17.925Z,101492.28
2023-03-16T13:04:46.835Z,101485.97
2023-03-16T13:07:22.747Z,101492.91
2023-03-16T13:09:59.086Z,101487.09
2023-03-16T13:12:37.894Z,101499.84
2023-03-16T13:15:25.563Z,101486.63
2023-03-16T13:18:21.781Z,101485.44
2023-03-16T13:20:48.192Z,101484.81
2023-03-16T13:23:22.222Z,101481.41
2023-03-16T13:26:18.775Z,101480.19
2023-03-16T13:28:51.147Z,101471.13
2023-03-16T13:31:33.240Z,101475.13
2023-03-16T13:34:00.688Z,101477.16
2023-03-16T13:36:29.242Z,101475.81
2023-03-16T13:38:58.638Z,101469.19
2023-03-16T13:41:25.198Z,101466.94
2023-03-16T13:43:52.101Z,101464.09
2023-03-16T13:46:27.041Z,101451.84
2023-03-16T13:48:54.015Z,101459.56
2023-03-16T13:51:23.043Z,101446.09
2023-03-16T13:53:50.536Z,101445.56
2023-03-16T13:56:27.018Z,101437.63
2023-03-16T13:58:54.163Z,101439.22
2023-03-16T14:01:29.701Z,101435.34
2023-03-16T14:03:58.969Z,101427.34
2023-03-16T14:06:30.588Z,101428.53
2023-03-16T14:09:01.414Z,101414.47
2023-03-16T14:11:28.590Z,101413.56
2023-03-16T14:13:57.443Z,101404.25
2023-03-16T14:16:26.730Z,101395.69
2023-03-16T14:19:26.067Z,101393.72
2023-03-16T14:21:52.637Z,101384.97
2023-03-16T14:24:28.711Z,101390.34
2023-03-16T14:26:55.913Z,101393.09
2023-03-16T14:29:31.288Z,101386.03
2023-03-16T14:31:58.839Z,101393.69
2023-03-16T14:34:40.025Z,101372.25
2023-03-16T14:37:12.290Z,101378.19
2023-03-16T14:39:40.618Z,101369.97
2023-03-16T14:42:15.380Z,101357.66
2023-03-16T14:44:42.574Z,101348.34
2023-03-16T14:47:21.582Z,101340.75
2023-03-16T14:49:48.528Z,101350.44
2023-03-16T14:52:27.574Z,101340.06
2023-03-16T14:54:55.390Z,101333.84
2023-03-16T14:57:22.130Z,101329.84
2023-03-16T14:59:48.709Z,101325.56
2023-03-16T15:02:29.844Z,101306.66
2023-03-16T15:04:57.530Z,101302.31
2023-03-16T15:07:25.301Z,101303.69
2023-03-16T15:09:53.899Z,101306.31
2023-03-16T15:12:21.595Z,101302.78
2023-03-16T15:15:07.069Z,101307.31
2023-03-16T15:17:33.573Z,101298.81
2023-03-16T15:20:00.459Z,101298.38
2023-03-16T15:22:37.952Z,101291.97
2023-03-16T15:25:36.522Z,101284.38
2023-03-16T15:28:12.466Z,101285.47
2023-03-16T15:30:39.192Z,101281.94
2023-03-16T15:33:06.249Z,101280.16
2023-03-16T15:35:33.522Z,101283.59
2023-03-16T15:38:04.807Z,101274.00
2023-03-16T15:40:31.982Z,101269.22
2023-03-16T15:42:58.561Z,101266.38
2023-03-16T15:45:25.591Z,101260.69
2023-03-16T15:47:53.321Z,101264.59
2023-03-16T15:50:24.631Z,101250.97
2023-03-16T15:53:02.195Z,101259.31
2023-03-16T15:55:49.050Z,101253.13
2023-03-16T15:58:27.620Z,101241.75
2023-03-16T16:00:56.026Z,101240.69
2023-03-16T16:03:24.121Z,101245.81
2023-03-16T16:05:52.065Z,101241.34
2023-03-16T16:08:19.049Z,101241.84
2023-03-16T16:10:47.002Z,101243.97
2023-03-16T16:13:17.339Z,101246.69
2023-03-16T16:15:45.317Z,101244.13
2023-03-16T16:18:27.845Z,101230.09
2023-03-16T16:20:55.584Z,101222.47
2023-03-16T16:23:23.193Z,101229.22
2023-03-16T16:25:51.440Z,101245.25
2023-03-16T16:28:29.494Z,101242.84
2023-03-16T16:30:57.108Z,101229.41
2023-03-16T16:33:28.846Z,101221.22
2023-03-16T16:35:57.661Z,101216.66
2023-03-16T16:38:24.939Z,101211.59
2023-03-16T16:40:52.490Z,101207.84
2023-03-16T16:43:28.047Z,101212.75
2023-03-16T16:45:54.813Z,101207.59
2023-03-16T16:48:32.375Z,101205.38
2023-03-16T16:51:01.824Z,101202.25
2023-03-16T16:53:28.412Z,101204.25
2023-03-16T16:55:55.814Z,101208.75
2023-03-16T16:58:24.832Z,101214.31
2023-03-16T17:00:55.186Z,101212.34
2023-03-16T17:03:27.589Z,101215.25
2023-03-16T17:05:55.960Z,101201.41
2023-03-16T17:08:23.632Z,101210.03
2023-03-16T17:10:51.795Z,101215.41
2023-03-16T17:13:38.945Z,101211.91
2023-03-16T17:16:07.298Z,101211.66
2023-03-16T17:18:33.971Z,101205.56
2023-03-16T17:21:00.754Z,101196.56
2023-03-16T17:23:32.640Z,101203.31
2023-03-16T17:26:17.936Z,101200.66
2023-03-16T17:29:06.287Z,101193.28
2023-03-16T17:31:38.251Z,101183.97
2023-03-16T17:34:22.450Z,101172.91
2023-03-16T17:36:48.981Z,101176.16
2023-03-16T17:39:24.243Z,101185.03
2023-03-16T17:42:09.899Z,101168.00
2023-03-16T17:44:39.811Z,101169.66
2023-03-16T17:47:18.501Z,101173.28
2023-03-16T17:49:48.573Z,101167.69
2023-03-16T17:52:18.411Z,101159.41
2023-03-16T17:54:46.291Z,101157.91
2023-03-16T17:57:23.002Z,101165.56
2023-03-16T17:59:49.462Z,101162.63
2023-03-16T18:02:44.928Z,101161.78
2023-03-16T18:05:20.921Z,101172.25
2023-03-16T18:07:47.829Z,101158.09
2023-03-16T18:10:16.742Z,101162.63
2023-03-16T18:12:44.092Z,101165.56
2023-03-16T18:15:16.201Z,101162.31
2023-03-16T18:17:43.419Z,101162.47
2023-03-16T18:20:32.793Z,101158.97
2023-03-16T18:23:01.738Z,101156.69
2023-03-16T18:25:41.998Z,101167.56
2023-03-16T18:28:09.797Z,101148.06
2023-03-16T18:30:38.079Z,101161.44
2023-03-16T18:33:07.185Z,101162.53
2023-03-16T18:35:33.708Z,101163.28
2023-03-16T18:38:00.524Z,101164.03
2023-03-16T18:40:27.476Z,101156.56
2023-03-16T18:42:55.067Z,101153.00
2023-03-16T18:45:21.792Z,101160.47
2023-03-16T18:47:53.302Z,101158.72
2023-03-16T18:50:26.264Z,101150.69
2023-03-16T18:52:53.891Z,101157.59
2023-03-16T18:55:22.931Z,101147.38
2023-03-16T18:57:52.531Z,101151.56
2023-03-16T19:00:21.901Z,101153.03
2023-03-16T19:02:52.760Z,101153.34
2023-03-16T19:05:33.768Z,101153.97
2023-03-16T19:08:00.164Z,101160.94
2023-03-16T19:10:29.312Z,101160.47
2023-03-16T19:12:55.821Z,101153.66
2023-03-16T19:15:27.577Z,101149.63
2023-03-16T19:17:54.671Z,101140.09
2023-03-16T19:20:28.000Z,101150.06
2023-03-16T19:23:09.058Z,101137.19
2023-03-16T19:25:38.142Z,101130.41
2023-03-16T19:28:06.231Z,101134.25
2023-03-16T19:30:34.077Z,101128.19
2023-03-16T19:33:01.125Z,101134.22
2023-03-16T19:35:48.371Z,101125.88
2023-03-16T19:38:15.614Z,101129.66
2023-03-16T19:40:42.491Z,101123.50
2023-03-16T19:43:19.727Z,101111.03
2023-03-16T19:45:47.260Z,101114.50
2023-03-16T19:48:22.541Z,101107.69
2023-03-16T19:50:50.182Z,101100.09
2023-03-16T19:53:19.711Z,101095.31
2023-03-16T19:55:47.674Z,101088.09
2023-03-16T19:58:21.041Z,101096.66
2023-03-16T20:00:47.856Z,101091.53
2023-03-16T20:03:14.606Z,101108.41
2023-03-16T20:05:41.244Z,101098.31
2023-03-16T20:08:25.640Z,101090.88
2023-03-16T20:10:52.469Z,101095.47
2023-03-16T20:13:18.923Z,101088.53
2023-03-16T20:15:45.964Z,101094.28
2023-03-16T20:18:17.056Z,101090.19
2023-03-16T20:20:44.097Z,101079.00
2023-03-16T20:23:18.557Z,101078.72
2023-03-16T20:25:46.157Z,101079.88
2023-03-16T20:28:18.550Z,101078.75
2023-03-16T20:30:45.573Z,101073.88
2023-03-16T20:33:24.231Z,101077.75
2023-03-16T20:35:53.380Z,101066.53
2023-03-16T20:38:20.511Z,101076.47
2023-03-16T20:40:49.562Z,101077.03
2023-03-16T20:43:31.438Z,101075.59
2023-03-16T20:46:00.336Z,101069.56
2023-03-16T20:48:27.480Z,101070.66
2023-03-16T20:50:54.938Z,101059.84
2023-03-16T20:53:21.942Z,101058.34
2023-03-16T20:55:50.074Z,101048.09
2023-03-16T20:58:22.080Z,101050.38
2023-03-16T21:00:52.553Z,101041.88
2023-03-16T21:03:22.265Z,101041.06
2023-03-16T21:05:50.079Z,101028.44
2023-03-16T21:08:16.592Z,101032.34
2023-03-16T21:10:45.338Z,101029.41
2023-03-16T21:13:32.249Z,101029.47
2023-03-16T21:16:01.478Z,101022.53
2023-03-16T21:18:28.427Z,101026.47
2023-03-16T21:20:56.138Z,101034.88
2023-03-16T21:23:23.844Z,101024.13
2023-03-16T21:25:55.687Z,101010.91
2023-03-16T21:28:24.770Z,101005.63
2023-03-16T21:30:53.131Z,100995.25
2023-03-16T21:33:29.926Z,100993.84
2023-03-16T21:35:57.381Z,100984.25
2023-03-16T21:38:25.982Z,100980.88
2023-03-16T21:40:52.700Z,100975.84
2023-03-16T21:43:19.235Z,100977.31
2023-03-16T21:45:46.576Z,100976.38
2023-03-16T21:48:20.009Z,100966.56
2023-03-16T21:50:46.617Z,100958.94
2023-03-16T21:53:24.220Z,100955.88
2023-03-16T21:55:51.588Z,100949.88
2023-03-16T21:58:18.845Z,100947.66
2023-03-16T22:00:46.736Z,100957.50
2023-03-16T22:03:24.440Z,100954.56
2023-03-16T22:05:51.224Z,100945.78
2023-03-16T22:08:21.328Z,100952.28
2023-03-16T22:10:47.844Z,100958.41
2023-03-16T22:13:14.405Z,100957.59
2023-03-16T22:15:42.552Z,100951.56
2023-03-16T22:18:21.811Z,100954.22
2023-03-16T22:20:48.639Z,100950.44
2023-03-16T22:23:31.923Z,100947.09
2023-03-16T22:25:58.955Z,100946.31
2023-03-16T22:28:26.103Z,100945.44
2023-03-16T22:30:53.208Z,100943.66
2023-03-16T22:33:25.034Z,100946.31
2023-03-16T22:35:52.068Z,100941.03
2023-03-16T22:38:18.479Z,100934.53
2023-03-16T22:40:44.895Z,100943.97
2023-03-16T22:43:13.817Z,100941.63
2023-03-16T22:45:40.290Z,100942.47
2023-03-16T22:48:18.720Z,100939.38
2023-03-16T22:50:46.509Z,100938.56
2023-03-16T22:53:18.514Z,100926.91
2023-03-16T22:55:45.112Z,100935.13
2023-03-16T22:58:19.422Z,100926.47
2023-03-16T23:00:45.835Z,100921.28
2023-03-16T23:03:16.939Z,100917.38
2023-03-16T23:05:43.413Z,100920.47
2023-03-16T23:08:17.487Z,100921.22
2023-03-16T23:10:45.012Z,100905.31
2023-03-16T23:13:17.803Z,100907.50
2023-03-16T23:15:46.561Z,100906.44
2023-03-16T23:18:19.371Z,100899.22
2023-03-16T23:20:46.832Z,100903.00
2023-03-16T23:23:14.554Z,100904.41
2023-03-16T23:25:42.210Z,100910.50
2023-03-16T23:28:12.188Z,100906.69
2023-03-16T23:30:39.127Z,100913.16
2023-03-16T23:33:05.712Z,100904.78
2023-03-16T23:35:32.250Z,100910.50
2023-03-16T23:37:59.002Z,100908.22
2023-03-16T23:40:27.286Z,100899.88
2023-03-16T23:42:54.581Z,100904.00
2023-03-16T23:45:25.297Z,100898.53
2023-03-16T23:47:53.573Z,100897.88
2023-03-16T23:50:28.922Z,100900.91
2023-03-16T23:52:55.748Z,100907.25
2023-03-16T23:55:22.733Z,100910.13
2023-03-16T23:57:49.391Z,100901.91
